AFR21KE LFPG-EHAM
Flight info
| Callsign | AFR21KE |
|---|---|
| Flight time | N/A |
| Altitude | 28000 |
| Route | NURMO DCT ADUTO N873 FERDI Y18 DENUT |
| Aircraft | A320/M-SDE2E3FGIJ1RWY/HB1 |
Departure
| Time | N/A |
|---|---|
| Airport | Charles de Gaulle International Airport (LFPG) |
Arrival
| Time | 2026-05-07 16:56 |
|---|---|
| Airport | Amsterdam Airport Schiphol (EHAM) |
| Time | Latitude | Longitude | Altitude | Speed | Heading |
|---|---|---|---|---|---|
| 2026-05-07 16:36 | 51.13985 | 3.65148 | 25858 ft | 372 kts | 0° |
| 2026-05-07 16:37 | 51.16565 | 3.65313 | 25391 ft | 370 kts | 0° |
| 2026-05-07 16:37 | 51.19166 | 3.65479 | 24923 ft | 368 kts | 0° |
| 2026-05-07 16:37 | 51.21683 | 3.65637 | 24442 ft | 366 kts | 0° |
| 2026-05-07 16:37 | 51.24224 | 3.65785 | 23964 ft | 364 kts | 359° |
| 2026-05-07 16:38 | 51.26753 | 3.65814 | 23540 ft | 363 kts | 357° |
| 2026-05-07 16:38 | 51.29270 | 3.65744 | 23087 ft | 361 kts | 356° |
| 2026-05-07 16:38 | 51.31770 | 3.65628 | 22675 ft | 358 kts | 356° |
| 2026-05-07 16:38 | 51.34256 | 3.65502 | 22262 ft | 356 kts | 356° |
| 2026-05-07 16:39 | 51.36725 | 3.65388 | 21853 ft | 354 kts | 356° |
| 2026-05-07 16:39 | 51.39177 | 3.65292 | 21445 ft | 351 kts | 356° |
| 2026-05-07 16:39 | 51.41614 | 3.65208 | 21041 ft | 349 kts | 357° |
| 2026-05-07 16:39 | 51.44036 | 3.65133 | 20640 ft | 347 kts | 357° |
| 2026-05-07 16:40 | 51.46442 | 3.65063 | 20244 ft | 345 kts | 357° |
| 2026-05-07 16:40 | 51.48832 | 3.64992 | 19847 ft | 343 kts | 357° |
| 2026-05-07 16:40 | 51.51212 | 3.64921 | 19453 ft | 341 kts | 357° |
| 2026-05-07 16:40 | 51.53574 | 3.64849 | 19062 ft | 339 kts | 358° |
| 2026-05-07 16:41 | 51.55929 | 3.64777 | 18672 ft | 337 kts | 357° |
| 2026-05-07 16:41 | 51.58268 | 3.64708 | 18270 ft | 335 kts | 357° |
| 2026-05-07 16:41 | 51.60590 | 3.64638 | 17858 ft | 333 kts | 357° |
| 2026-05-07 16:41 | 51.62899 | 3.64566 | 17474 ft | 331 kts | 356° |
| 2026-05-07 16:42 | 51.65196 | 3.64494 | 17093 ft | 329 kts | 356° |
| 2026-05-07 16:42 | 51.67477 | 3.64426 | 16716 ft | 327 kts | 356° |
| 2026-05-07 16:42 | 51.69733 | 3.64824 | 16337 ft | 328 kts | 14° |
| 2026-05-07 16:42 | 51.71835 | 3.66227 | 15964 ft | 328 kts | 31° |
| 2026-05-07 16:43 | 51.73600 | 3.68533 | 15579 ft | 328 kts | 47° |
| 2026-05-07 16:43 | 51.74924 | 3.71511 | 15189 ft | 327 kts | 57° |
| 2026-05-07 16:43 | 51.76138 | 3.74614 | 14825 ft | 326 kts | 57° |
| 2026-05-07 16:43 | 51.77351 | 3.77699 | 14445 ft | 325 kts | 57° |
| 2026-05-07 16:44 | 51.78562 | 3.80764 | 14065 ft | 323 kts | 57° |
| 2026-05-07 16:44 | 51.79769 | 3.83818 | 13666 ft | 322 kts | 57° |
| 2026-05-07 16:44 | 51.80968 | 3.86853 | 13300 ft | 319 kts | 57° |
| 2026-05-07 16:44 | 51.82156 | 3.89870 | 12925 ft | 317 kts | 57° |
| 2026-05-07 16:45 | 51.83330 | 3.92861 | 12565 ft | 314 kts | 57° |
| 2026-05-07 16:45 | 51.84494 | 3.95838 | 12204 ft | 312 kts | 57° |
| 2026-05-07 16:45 | 51.85652 | 3.98801 | 11842 ft | 310 kts | 58° |
| 2026-05-07 16:45 | 51.86800 | 4.01744 | 11479 ft | 309 kts | 58° |
| 2026-05-07 16:46 | 51.87940 | 4.04677 | 11123 ft | 307 kts | 58° |
| 2026-05-07 16:46 | 51.89073 | 4.07592 | 10770 ft | 305 kts | 58° |
| 2026-05-07 16:46 | 51.90199 | 4.10492 | 10418 ft | 303 kts | 58° |
| 2026-05-07 16:46 | 51.91421 | 4.13245 | 10070 ft | 300 kts | 47° |
| 2026-05-07 16:47 | 51.92969 | 4.15497 | 9621 ft | 299 kts | 38° |
| 2026-05-07 16:47 | 51.94583 | 4.17612 | 9205 ft | 297 kts | 39° |
| 2026-05-07 16:47 | 51.96178 | 4.19717 | 8795 ft | 294 kts | 39° |
| 2026-05-07 16:47 | 51.97759 | 4.21808 | 8379 ft | 292 kts | 40° |
| 2026-05-07 16:48 | 51.99332 | 4.23888 | 7968 ft | 290 kts | 40° |
| 2026-05-07 16:48 | 52.00883 | 4.25941 | 7560 ft | 287 kts | 40° |
| 2026-05-07 16:48 | 52.02431 | 4.27990 | 7109 ft | 286 kts | 40° |
| 2026-05-07 16:48 | 52.03958 | 4.30011 | 6630 ft | 280 kts | 40° |
| 2026-05-07 16:49 | 52.05462 | 4.32001 | 6194 ft | 278 kts | 39° |
| 2026-05-07 16:49 | 52.06954 | 4.33984 | 5784 ft | 276 kts | 41° |
| 2026-05-07 16:49 | 52.08428 | 4.35950 | 5393 ft | 272 kts | 40° |
| 2026-05-07 16:49 | 52.09883 | 4.37895 | 5006 ft | 269 kts | 41° |
| 2026-05-07 16:50 | 52.11308 | 4.39800 | 4779 ft | 257 kts | 41° |
| 2026-05-07 16:50 | 52.12641 | 4.41577 | 4527 ft | 238 kts | 40° |
| 2026-05-07 16:50 | 52.13864 | 4.43206 | 4318 ft | 220 kts | 40° |
| 2026-05-07 16:50 | 52.15042 | 4.44781 | 3812 ft | 218 kts | 41° |
| 2026-05-07 16:51 | 52.16202 | 4.46333 | 3370 ft | 215 kts | 41° |
| 2026-05-07 16:51 | 52.17357 | 4.47880 | 3256 ft | 220 kts | 40° |
| 2026-05-07 16:51 | 52.18553 | 4.49480 | 3163 ft | 224 kts | 41° |
| 2026-05-07 16:51 | 52.19758 | 4.51092 | 3054 ft | 225 kts | 40° |
| 2026-05-07 16:52 | 52.20841 | 4.52878 | 2925 ft | 221 kts | 54° |
| 2026-05-07 16:52 | 52.21677 | 4.54947 | 2693 ft | 216 kts | 59° |
| 2026-05-07 16:52 | 52.22467 | 4.57018 | 2409 ft | 214 kts | 58° |
| 2026-05-07 16:52 | 52.23240 | 4.59026 | 2115 ft | 204 kts | 58° |
| 2026-05-07 16:53 | 52.23979 | 4.60938 | 1849 ft | 195 kts | 58° |
| 2026-05-07 16:53 | 52.24681 | 4.62756 | 1621 ft | 182 kts | 57° |
| 2026-05-07 16:53 | 52.25319 | 4.64408 | 1352 ft | 162 kts | 57° |
| 2026-05-07 16:53 | 52.25880 | 4.65861 | 1152 ft | 141 kts | 57° |
| 2026-05-07 16:54 | 52.26380 | 4.67158 | 961 ft | 131 kts | 55° |
| 2026-05-07 16:54 | 52.26851 | 4.68379 | 786 ft | 126 kts | 56° |
| 2026-05-07 16:54 | 52.27309 | 4.69565 | 632 ft | 123 kts | 57° |
| 2026-05-07 16:54 | 52.27764 | 4.70747 | 464 ft | 123 kts | 56° |
| 2026-05-07 16:55 | 52.28222 | 4.71931 | 299 ft | 123 kts | 57° |
| 2026-05-07 16:55 | 52.28673 | 4.73120 | 135 ft | 123 kts | 57° |
| 2026-05-07 16:55 | 52.29130 | 4.74290 | 2 ft | 116 kts | 60° |
| 2026-05-07 16:55 | 52.29483 | 4.75215 | -3 ft | 72 kts | 58° |
| 2026-05-07 16:56 | 52.29655 | 4.75657 | -1 ft | 29 kts | 52° |
| 2026-05-07 16:56 | 52.29818 | 4.75836 | -1 ft | 28 kts | 28° |
| 2026-05-07 16:56 | 52.29989 | 4.75984 | -1 ft | 13 kts | 38° |
| 2026-05-07 16:57 | 52.30043 | 4.76122 | -1 ft | 16 kts | 57° |
| 2026-05-07 16:57 | 52.30108 | 4.76289 | -1 ft | 19 kts | 58° |
| 2026-05-07 16:57 | 52.30181 | 4.76482 | -1 ft | 21 kts | 58° |
| 2026-05-07 16:57 | 52.30243 | 4.76644 | -1 ft | 16 kts | 58° |
| 2026-05-07 16:58 | 52.30299 | 4.76740 | -1 ft | 12 kts | 13° |
| 2026-05-07 16:58 | 52.30348 | 4.76654 | -1 ft | 10 kts | 283° |
| 2026-05-07 16:58 | 52.30382 | 4.76563 | -1 ft | 9 kts | 329° |
| 2026-05-07 16:58 | 52.30436 | 4.76509 | -1 ft | 9 kts | 328° |
| 2026-05-07 16:59 | 52.30486 | 4.76458 | -1 ft | 8 kts | 327° |
| 2026-05-07 16:59 | 52.30515 | 4.76455 | -1 ft | 3 kts | 38° |
| 2026-05-07 16:59 | 52.30526 | 4.76485 | -1 ft | 3 kts | 59° |
| 2026-05-07 16:59 | 52.30536 | 4.76510 | -1 ft | 2 kts | 59° |
| 2026-05-07 17:00 | 52.30540 | 4.76522 | -1 ft | 0 kts | 59° |